sensor_id;sensor_type;location;lat;lon;timestamp;pressure;altitude;pressure_sealevel;temperature;humidity
13235;BME280;6683;48.506;9.050;2023-04-20T00:00:46;98067.34;;;7.03;69.37
13235;BME280;6683;48.506;9.050;2023-04-20T00:03:49;98063.44;;;6.99;69.52
13235;BME280;6683;48.506;9.050;2023-04-20T00:06:53;98049.19;;;6.94;69.36
13235;BME280;6683;48.506;9.050;2023-04-20T00:09:56;98049.69;;;6.89;69.25
13235;BME280;6683;48.506;9.050;2023-04-20T00:12:59;98044.09;;;6.84;69.45
13235;BME280;6683;48.506;9.050;2023-04-20T00:16:01;98034.94;;;6.80;69.57
13235;BME280;6683;48.506;9.050;2023-04-20T00:19:04;98034.63;;;6.75;69.57
13235;BME280;6683;48.506;9.050;2023-04-20T00:22:08;98027.06;;;6.72;69.34
13235;BME280;6683;48.506;9.050;2023-04-20T00:25:11;98021.19;;;6.70;69.77
13235;BME280;6683;48.506;9.050;2023-04-20T00:28:13;98018.91;;;6.67;69.55
13235;BME280;6683;48.506;9.050;2023-04-20T00:31:17;98018.41;;;6.64;69.51
13235;BME280;6683;48.506;9.050;2023-04-20T00:34:19;98011.84;;;6.60;69.36
13235;BME280;6683;48.506;9.050;2023-04-20T00:37:23;98015.63;;;6.57;69.64
13235;BME280;6683;48.506;9.050;2023-04-20T00:40:26;98013.50;;;6.53;69.60
13235;BME280;6683;48.506;9.050;2023-04-20T00:43:29;98002.88;;;6.46;69.23
13235;BME280;6683;48.506;9.050;2023-04-20T00:46:32;97999.91;;;6.41;69.75
13235;BME280;6683;48.506;9.050;2023-04-20T00:49:35;97996.97;;;6.36;69.51
13235;BME280;6683;48.506;9.050;2023-04-20T00:52:38;97996.94;;;6.28;69.36
13235;BME280;6683;48.506;9.050;2023-04-20T00:55:42;97992.22;;;6.23;69.38
13235;BME280;6683;48.506;9.050;2023-04-20T00:58:46;97991.88;;;6.18;69.69
13235;BME280;6683;48.506;9.050;2023-04-20T01:01:48;97989.94;;;6.12;69.41
13235;BME280;6683;48.506;9.050;2023-04-20T01:04:51;97981.91;;;6.06;69.39
13235;BME280;6683;48.506;9.050;2023-04-20T01:07:54;97987.63;;;6.01;69.70
13235;BME280;6683;48.506;9.050;2023-04-20T01:10:57;97981.25;;;5.96;69.26
13235;BME280;6683;48.506;9.050;2023-04-20T01:14:00;97975.00;;;5.89;69.32
13235;BME280;6683;48.506;9.050;2023-04-20T01:17:03;97965.47;;;5.80;69.11
13235;BME280;6683;48.506;9.050;2023-04-20T01:20:07;97972.34;;;5.73;69.17
13235;BME280;6683;48.506;9.050;2023-04-20T01:23:12;97970.38;;;5.66;69.51
13235;BME280;6683;48.506;9.050;2023-04-20T01:26:17;97966.25;;;5.64;69.27
13235;BME280;6683;48.506;9.050;2023-04-20T01:29:20;97961.50;;;5.59;70.01
13235;BME280;6683;48.506;9.050;2023-04-20T01:32:22;97949.72;;;5.55;69.28
13235;BME280;6683;48.506;9.050;2023-04-20T01:35:25;97952.03;;;5.50;69.35
13235;BME280;6683;48.506;9.050;2023-04-20T01:38:29;97942.84;;;5.46;69.68
13235;BME280;6683;48.506;9.050;2023-04-20T01:41:34;97947.91;;;5.40;69.58
13235;BME280;6683;48.506;9.050;2023-04-20T01:44:37;97950.00;;;5.36;69.28
13235;BME280;6683;48.506;9.050;2023-04-20T01:47:40;97942.00;;;5.30;69.65
13235;BME280;6683;48.506;9.050;2023-04-20T01:50:42;97939.31;;;5.22;69.13
13235;BME280;6683;48.506;9.050;2023-04-20T01:53:46;97928.84;;;5.14;69.52
13235;BME280;6683;48.506;9.050;2023-04-20T01:56:48;97937.16;;;5.09;69.21
13235;BME280;6683;48.506;9.050;2023-04-20T01:59:51;97934.22;;;5.04;69.40
13235;BME280;6683;48.506;9.050;2023-04-20T02:02:54;97927.97;;;4.97;69.09
13235;BME280;6683;48.506;9.050;2023-04-20T02:05:57;97932.72;;;4.94;69.79
13235;BME280;6683;48.506;9.050;2023-04-20T02:09:01;97927.13;;;4.88;69.24
13235;BME280;6683;48.506;9.050;2023-04-20T02:12:04;97930.53;;;4.81;69.11
13235;BME280;6683;48.506;9.050;2023-04-20T02:15:07;97925.94;;;4.75;69.62
13235;BME280;6683;48.506;9.050;2023-04-20T02:18:10;97915.44;;;4.67;69.31
13235;BME280;6683;48.506;9.050;2023-04-20T02:21:13;97915.06;;;4.62;69.49
13235;BME280;6683;48.506;9.050;2023-04-20T02:24:17;97913.09;;;4.56;68.97
13235;BME280;6683;48.506;9.050;2023-04-20T02:27:19;97915.34;;;4.51;69.35
13235;BME280;6683;48.506;9.050;2023-04-20T02:30:21;97907.00;;;4.47;69.30
13235;BME280;6683;48.506;9.050;2023-04-20T02:33:24;97903.88;;;4.44;69.50
13235;BME280;6683;48.506;9.050;2023-04-20T02:36:27;97900.72;;;4.40;69.93
13235;BME280;6683;48.506;9.050;2023-04-20T02:39:31;97901.91;;;4.38;69.44
13235;BME280;6683;48.506;9.050;2023-04-20T02:42:33;97894.84;;;4.38;70.07
13235;BME280;6683;48.506;9.050;2023-04-20T02:45:36;97891.44;;;4.38;69.50
13235;BME280;6683;48.506;9.050;2023-04-20T02:48:38;97881.00;;;4.38;69.91
13235;BME280;6683;48.506;9.050;2023-04-20T02:51:41;97879.16;;;4.38;69.95
13235;BME280;6683;48.506;9.050;2023-04-20T02:54:45;97875.09;;;4.36;70.26
13235;BME280;6683;48.506;9.050;2023-04-20T02:57:47;97879.50;;;4.35;69.97
13235;BME280;6683;48.506;9.050;2023-04-20T03:00:50;97875.09;;;4.36;69.72
13235;BME280;6683;48.506;9.050;2023-04-20T03:03:53;97874.44;;;4.34;69.58
13235;BME280;6683;48.506;9.050;2023-04-20T03:06:55;97877.34;;;4.31;69.41
13235;BME280;6683;48.506;9.050;2023-04-20T03:09:59;97870.78;;;4.27;69.69
13235;BME280;6683;48.506;9.050;2023-04-20T03:13:01;97865.19;;;4.22;69.27
13235;BME280;6683;48.506;9.050;2023-04-20T03:16:05;97859.31;;;4.20;69.67
13235;BME280;6683;48.506;9.050;2023-04-20T03:19:07;97861.13;;;4.19;69.78
13235;BME280;6683;48.506;9.050;2023-04-20T03:22:10;97853.28;;;4.19;69.92
13235;BME280;6683;48.506;9.050;2023-04-20T03:25:14;97857.03;;;4.17;69.99
13235;BME280;6683;48.506;9.050;2023-04-20T03:28:17;97852.75;;;4.16;70.09
13235;BME280;6683;48.506;9.050;2023-04-20T03:31:19;97857.19;;;4.15;69.93
13235;BME280;6683;48.506;9.050;2023-04-20T03:34:21;97849.66;;;4.12;70.09
13235;BME280;6683;48.506;9.050;2023-04-20T03:37:24;97849.66;;;4.12;70.05
13235;BME280;6683;48.506;9.050;2023-04-20T03:40:28;97852.44;;;4.11;70.12
13235;BME280;6683;48.506;9.050;2023-04-20T03:43:31;97853.38;;;4.10;69.78
13235;BME280;6683;48.506;9.050;2023-04-20T03:46:33;97846.38;;;4.10;69.68
13235;BME280;6683;48.506;9.050;2023-04-20T03:49:37;97847.34;;;4.09;69.94
13235;BME280;6683;48.506;9.050;2023-04-20T03:52:39;97837.88;;;4.08;69.86
13235;BME280;6683;48.506;9.050;2023-04-20T03:55:43;97835.28;;;4.08;70.07
13235;BME280;6683;48.506;9.050;2023-04-20T03:58:46;97840.16;;;4.11;70.20
13235;BME280;6683;48.506;9.050;2023-04-20T04:01:49;97846.06;;;4.13;69.97
13235;BME280;6683;48.506;9.050;2023-04-20T04:04:51;97840.69;;;4.15;70.28
13235;BME280;6683;48.506;9.050;2023-04-20T04:07:54;97845.75;;;4.16;70.03
13235;BME280;6683;48.506;9.050;2023-04-20T04:10:58;97850.81;;;4.18;70.05
13235;BME280;6683;48.506;9.050;2023-04-20T04:14:01;97846.25;;;4.20;69.58
13235;BME280;6683;48.506;9.050;2023-04-20T04:17:05;97850.19;;;4.24;69.84
13235;BME280;6683;48.506;9.050;2023-04-20T04:20:08;97846.47;;;4.26;70.13
13235;BME280;6683;48.506;9.050;2023-04-20T04:23:12;97844.50;;;4.28;70.26
13235;BME280;6683;48.506;9.050;2023-04-20T04:26:15;97834.72;;;4.30;70.04
13235;BME280;6683;48.506;9.050;2023-04-20T04:29:21;97834.59;;;4.32;70.13
13235;BME280;6683;48.506;9.050;2023-04-20T04:32:25;97837.88;;;4.34;69.82
13235;BME280;6683;48.506;9.050;2023-04-20T04:35:28;97842.09;;;4.35;69.61
13235;BME280;6683;48.506;9.050;2023-04-20T04:38:31;97842.91;;;4.35;69.64
13235;BME280;6683;48.506;9.050;2023-04-20T04:41:35;97840.81;;;4.39;69.88
13235;BME280;6683;48.506;9.050;2023-04-20T04:44:38;97840.50;;;4.42;69.96
13235;BME280;6683;48.506;9.050;2023-04-20T04:47:41;97839.50;;;4.43;70.07
13235;BME280;6683;48.506;9.050;2023-04-20T04:50:44;97842.00;;;4.44;69.51
13235;BME280;6683;48.506;9.050;2023-04-20T04:53:47;97846.06;;;4.47;69.53
13235;BME280;6683;48.506;9.050;2023-04-20T04:56:50;97843.00;;;4.51;70.49
13235;BME280;6683;48.506;9.050;2023-04-20T04:59:53;97844.97;;;4.57;69.88
13235;BME280;6683;48.506;9.050;2023-04-20T05:02:56;97842.88;;;4.61;70.39
13235;BME280;6683;48.506;9.050;2023-04-20T05:05:58;97845.16;;;4.64;70.02
13235;BME280;6683;48.506;9.050;2023-04-20T05:09:01;97845.00;;;4.65;70.08
13235;BME280;6683;48.506;9.050;2023-04-20T05:12:06;97848.44;;;4.66;70.21
13235;BME280;6683;48.506;9.050;2023-04-20T05:15:09;97837.69;;;4.69;69.96
13235;BME280;6683;48.506;9.050;2023-04-20T05:18:14;97838.34;;;4.71;70.31
13235;BME280;6683;48.506;9.050;2023-04-20T05:21:16;97835.56;;;4.72;70.26
13235;BME280;6683;48.506;9.050;2023-04-20T05:24:19;97838.00;;;4.74;70.13
13235;BME280;6683;48.506;9.050;2023-04-20T05:27:23;97831.97;;;4.73;70.42
13235;BME280;6683;48.506;9.050;2023-04-20T05:30:25;97841.44;;;4.74;69.82
13235;BME280;6683;48.506;9.050;2023-04-20T05:33:28;97840.47;;;4.75;69.92
13235;BME280;6683;48.506;9.050;2023-04-20T05:36:30;97838.34;;;4.79;70.32
13235;BME280;6683;48.506;9.050;2023-04-20T05:39:33;97843.91;;;4.84;70.02
13235;BME280;6683;48.506;9.050;2023-04-20T05:42:37;97843.59;;;4.87;70.18
13235;BME280;6683;48.506;9.050;2023-04-20T05:45:40;97855.06;;;4.94;70.60
13235;BME280;6683;48.506;9.050;2023-04-20T05:48:43;97850.81;;;5.01;70.55
13235;BME280;6683;48.506;9.050;2023-04-20T05:51:46;97854.44;;;5.08;70.72
13235;BME280;6683;48.506;9.050;2023-04-20T05:54:48;97856.13;;;5.17;70.30
13235;BME280;6683;48.506;9.050;2023-04-20T05:57:52;97851.84;;;5.24;70.70
13235;BME280;6683;48.506;9.050;2023-04-20T06:00:54;97855.97;;;5.35;70.27
13235;BME280;6683;48.506;9.050;2023-04-20T06:03:58;97849.75;;;5.44;70.57
13235;BME280;6683;48.506;9.050;2023-04-20T06:07:00;97854.19;;;5.51;70.44
13235;BME280;6683;48.506;9.050;2023-04-20T06:10:04;97849.13;;;5.58;70.77
13235;BME280;6683;48.506;9.050;2023-04-20T06:13:09;97837.81;;;5.65;70.83
13235;BME280;6683;48.506;9.050;2023-04-20T06:16:12;97839.44;;;5.75;70.36
13235;BME280;6683;48.506;9.050;2023-04-20T06:19:14;97833.75;;;5.87;70.60
13235;BME280;6683;48.506;9.050;2023-04-20T06:22:17;97831.94;;;5.96;70.56
13235;BME280;6683;48.506;9.050;2023-04-20T06:25:20;97826.34;;;6.07;70.34
13235;BME280;6683;48.506;9.050;2023-04-20T06:28:24;97827.28;;;6.22;71.25
13235;BME280;6683;48.506;9.050;2023-04-20T06:31:27;97824.31;;;6.33;70.91
13235;BME280;6683;48.506;9.050;2023-04-20T06:34:29;97829.53;;;6.41;70.92
13235;BME280;6683;48.506;9.050;2023-04-20T06:37:32;97827.50;;;6.51;70.72
13235;BME280;6683;48.506;9.050;2023-04-20T06:40:36;97829.94;;;6.61;70.67
13235;BME280;6683;48.506;9.050;2023-04-20T06:43:40;97823.84;;;6.68;70.66
13235;BME280;6683;48.506;9.050;2023-04-20T06:46:45;97818.56;;;6.76;70.66
13235;BME280;6683;48.506;9.050;2023-04-20T06:49:47;97825.72;;;6.82;70.55
13235;BME280;6683;48.506;9.050;2023-04-20T06:52:50;97821.78;;;6.86;70.59
13235;BME280;6683;48.506;9.050;2023-04-20T06:55:53;97817.47;;;6.93;70.63
13235;BME280;6683;48.506;9.050;2023-04-20T06:58:57;97822.84;;;7.00;70.49
13235;BME280;6683;48.506;9.050;2023-04-20T07:01:59;97819.53;;;7.06;70.25
13235;BME280;6683;48.506;9.050;2023-04-20T07:05:02;97817.75;;;7.06;70.11
13235;BME280;6683;48.506;9.050;2023-04-20T07:08:05;97817.75;;;7.06;70.02
13235;BME280;6683;48.506;9.050;2023-04-20T07:11:09;97808.22;;;7.05;69.95
13235;BME280;6683;48.506;9.050;2023-04-20T07:14:13;97801.81;;;7.08;70.13
13235;BME280;6683;48.506;9.050;2023-04-20T07:17:15;97799.50;;;7.13;70.07
13235;BME280;6683;48.506;9.050;2023-04-20T07:20:18;97797.78;;;7.20;70.24
13235;BME280;6683;48.506;9.050;2023-04-20T07:23:20;97797.56;;;7.30;70.36
13235;BME280;6683;48.506;9.050;2023-04-20T07:26:23;97801.75;;;7.39;70.40
13235;BME280;6683;48.506;9.050;2023-04-20T07:29:27;97812.22;;;7.47;70.23
13235;BME280;6683;48.506;9.050;2023-04-20T07:32:30;97804.78;;;7.50;70.03
13235;BME280;6683;48.506;9.050;2023-04-20T07:35:32;97800.38;;;7.51;69.98
13235;BME280;6683;48.506;9.050;2023-04-20T07:38:34;97812.94;;;7.55;70.15
13235;BME280;6683;48.506;9.050;2023-04-20T07:41:38;97802.09;;;7.58;70.06
13235;BME280;6683;48.506;9.050;2023-04-20T07:44:41;97804.19;;;7.63;69.91
13235;BME280;6683;48.506;9.050;2023-04-20T07:47:44;97810.72;;;7.67;69.99
13235;BME280;6683;48.506;9.050;2023-04-20T07:50:51;97799.69;;;7.71;70.09
13235;BME280;6683;48.506;9.050;2023-04-20T07:53:53;97810.13;;;7.79;70.12
13235;BME280;6683;48.506;9.050;2023-04-20T07:56:56;97806.59;;;7.87;70.21
13235;BME280;6683;48.506;9.050;2023-04-20T08:00:00;97804.88;;;7.94;70.01
13235;BME280;6683;48.506;9.050;2023-04-20T08:03:03;97805.78;;;8.01;69.96
13235;BME280;6683;48.506;9.050;2023-04-20T08:06:06;97798.81;;;8.08;70.16
13235;BME280;6683;48.506;9.050;2023-04-20T08:09:09;97804.53;;;8.12;69.71
13235;BME280;6683;48.506;9.050;2023-04-20T08:12:11;97804.53;;;8.12;69.86
13235;BME280;6683;48.506;9.050;2023-04-20T08:15:15;97802.38;;;8.15;69.78
13235;BME280;6683;48.506;9.050;2023-04-20T08:18:18;97794.13;;;8.18;69.86
13235;BME280;6683;48.506;9.050;2023-04-20T08:21:21;97794.59;;;8.22;69.69
13235;BME280;6683;48.506;9.050;2023-04-20T08:24:23;97790.75;;;8.24;69.67
13235;BME280;6683;48.506;9.050;2023-04-20T08:27:26;97789.44;;;8.28;69.85
13235;BME280;6683;48.506;9.050;2023-04-20T08:30:31;97787.28;;;8.32;69.93
13235;BME280;6683;48.506;9.050;2023-04-20T08:33:33;97781.47;;;8.36;69.81
13235;BME280;6683;48.506;9.050;2023-04-20T08:36:36;97774.66;;;8.42;69.96
13235;BME280;6683;48.506;9.050;2023-04-20T08:39:38;97772.31;;;8.47;70.03
13235;BME280;6683;48.506;9.050;2023-04-20T08:42:41;97764.66;;;8.52;70.08
13235;BME280;6683;48.506;9.050;2023-04-20T08:45:48;97770.00;;;8.58;70.12
13235;BME280;6683;48.506;9.050;2023-04-20T08:48:52;97771.16;;;8.70;69.88
13235;BME280;6683;48.506;9.050;2023-04-20T08:51:56;97774.13;;;8.82;69.86
13235;BME280;6683;48.506;9.050;2023-04-20T08:54:59;97775.00;;;8.89;69.99
13235;BME280;6683;48.506;9.050;2023-04-20T08:58:02;97769.69;;;9.04;69.81
13235;BME280;6683;48.506;9.050;2023-04-20T09:01:05;97769.00;;;9.16;69.59
13235;BME280;6683;48.506;9.050;2023-04-20T09:04:16;97760.81;;;9.26;69.86
13235;BME280;6683;48.506;9.050;2023-04-20T09:07:20;97764.16;;;9.34;69.67
13235;BME280;6683;48.506;9.050;2023-04-20T09:10:24;97763.19;;;9.42;69.32
13235;BME280;6683;48.506;9.050;2023-04-20T09:13:26;97764.25;;;9.47;69.50
13235;BME280;6683;48.506;9.050;2023-04-20T09:16:30;97761.88;;;9.52;69.50
13235;BME280;6683;48.506;9.050;2023-04-20T09:19:34;97757.00;;;9.56;69.47
13235;BME280;6683;48.506;9.050;2023-04-20T09:22:37;97759.28;;;9.59;69.61
13235;BME280;6683;48.506;9.050;2023-04-20T09:25:40;97750.63;;;9.65;69.54
13235;BME280;6683;48.506;9.050;2023-04-20T09:28:43;97753.47;;;9.70;69.28
13235;BME280;6683;48.506;9.050;2023-04-20T09:31:47;97752.91;;;9.75;69.20
13235;BME280;6683;48.506;9.050;2023-04-20T09:34:50;97750.53;;;9.80;69.37
13235;BME280;6683;48.506;9.050;2023-04-20T09:37:53;97756.22;;;9.83;68.93
13235;BME280;6683;48.506;9.050;2023-04-20T09:40:58;97755.84;;;9.86;68.98
13235;BME280;6683;48.506;9.050;2023-04-20T09:44:02;97750.16;;;9.89;68.92
13235;BME280;6683;48.506;9.050;2023-04-20T09:47:07;97753.88;;;9.95;69.35
13235;BME280;6683;48.506;9.050;2023-04-20T09:50:11;97753.28;;;9.99;68.96
13235;BME280;6683;48.506;9.050;2023-04-20T09:53:16;97756.34;;;10.03;69.03
13235;BME280;6683;48.506;9.050;2023-04-20T09:56:19;97752.13;;;10.08;69.06
13235;BME280;6683;48.506;9.050;2023-04-20T09:59:22;97755.03;;;10.13;68.80
13235;BME280;6683;48.506;9.050;2023-04-20T10:02:27;97747.34;;;10.18;68.53
13235;BME280;6683;48.506;9.050;2023-04-20T10:05:33;97752.06;;;10.29;68.67
13235;BME280;6683;48.506;9.050;2023-04-20T10:08:40;97749.88;;;10.39;68.85
13235;BME280;6683;48.506;9.050;2023-04-20T10:11:43;97741.63;;;10.49;68.50
13235;BME280;6683;48.506;9.050;2023-04-20T10:14:54;97733.09;;;10.54;68.63
13235;BME280;6683;48.506;9.050;2023-04-20T10:17:59;97726.63;;;10.63;68.66
13235;BME280;6683;48.506;9.050;2023-04-20T10:21:06;97724.22;;;10.68;68.51
13235;BME280;6683;48.506;9.050;2023-04-20T10:24:09;97712.66;;;10.69;68.26
13235;BME280;6683;48.506;9.050;2023-04-20T10:27:16;97701.25;;;10.68;68.08
13235;BME280;6683;48.506;9.050;2023-04-20T10:30:19;97690.13;;;10.73;68.45
13235;BME280;6683;48.506;9.050;2023-04-20T10:33:24;97695.84;;;10.76;68.28
13235;BME280;6683;48.506;9.050;2023-04-20T10:36:29;97694.59;;;10.79;68.22
13235;BME280;6683;48.506;9.050;2023-04-20T10:39:32;97695.44;;;10.86;68.44
13235;BME280;6683;48.506;9.050;2023-04-20T10:42:41;97694.84;;;10.90;68.31
13235;BME280;6683;48.506;9.050;2023-04-20T10:45:44;97690.16;;;10.92;67.90
13235;BME280;6683;48.506;9.050;2023-04-20T10:48:53;97686.91;;;10.90;68.17
13235;BME280;6683;48.506;9.050;2023-04-20T10:51:56;97687.53;;;10.92;68.11
13235;BME280;6683;48.506;9.050;2023-04-20T10:54:58;97684.88;;;10.92;68.20
13235;BME280;6683;48.506;9.050;2023-04-20T10:58:01;97684.09;;;10.98;68.13
13235;BME280;6683;48.506;9.050;2023-04-20T11:01:04;97670.47;;;11.01;68.03
13235;BME280;6683;48.506;9.050;2023-04-20T11:04:10;97660.13;;;11.06;68.28
13235;BME280;6683;48.506;9.050;2023-04-20T11:07:13;97665.78;;;11.10;68.23
13235;BME280;6683;48.506;9.050;2023-04-20T11:10:16;97652.81;;;11.15;68.57
13235;BME280;6683;48.506;9.050;2023-04-20T11:13:20;97656.66;;;11.19;68.32
13235;BME280;6683;48.506;9.050;2023-04-20T11:16:25;97652.00;;;11.21;68.16
13235;BME280;6683;48.506;9.050;2023-04-20T11:19:31;97664.97;;;11.16;68.10
13235;BME280;6683;48.506;9.050;2023-04-20T11:22:34;97673.13;;;11.14;67.99
13235;BME280;6683;48.506;9.050;2023-04-20T11:25:37;97672.72;;;11.11;67.88
13235;BME280;6683;48.506;9.050;2023-04-20T11:28:53;97673.31;;;11.06;67.91
13235;BME280;6683;48.506;9.050;2023-04-20T11:31:56;97675.34;;;11.04;68.27
13235;BME280;6683;48.506;9.050;2023-04-20T11:35:02;97671.50;;;11.00;68.29
13235;BME280;6683;48.506;9.050;2023-04-20T11:38:07;97681.84;;;11.02;68.05
13235;BME280;6683;48.506;9.050;2023-04-20T11:41:10;97679.41;;;11.00;68.00
13235;BME280;6683;48.506;9.050;2023-04-20T11:44:13;97679.63;;;10.99;68.28
13235;BME280;6683;48.506;9.050;2023-04-20T11:47:15;97685.91;;;10.98;67.92
13235;BME280;6683;48.506;9.050;2023-04-20T11:50:19;97672.69;;;10.98;68.06
13235;BME280;6683;48.506;9.050;2023-04-20T11:53:22;97673.31;;;11.00;68.30
13235;BME280;6683;48.506;9.050;2023-04-20T11:56:25;97665.19;;;11.01;68.00
13235;BME280;6683;48.506;9.050;2023-04-20T11:59:27;97666.22;;;11.00;68.16
13235;BME280;6683;48.506;9.050;2023-04-20T12:02:30;97656.47;;;11.01;68.26
13235;BME280;6683;48.506;9.050;2023-04-20T12:05:34;97648.72;;;10.99;68.14
13235;BME280;6683;48.506;9.050;2023-04-20T12:08:36;97647.13;;;10.98;68.21
13235;BME280;6683;48.506;9.050;2023-04-20T12:11:39;97648.94;;;10.98;68.23
13235;BME280;6683;48.506;9.050;2023-04-20T12:14:42;97644.06;;;10.95;68.03
13235;BME280;6683;48.506;9.050;2023-04-20T12:17:44;97647.50;;;10.95;68.48
13235;BME280;6683;48.506;9.050;2023-04-20T12:20:48;97650.97;;;10.96;68.53
13235;BME280;6683;48.506;9.050;2023-04-20T12:23:51;97649.34;;;10.95;68.11
13235;BME280;6683;48.506;9.050;2023-04-20T12:26:54;97646.91;;;10.93;68.49
13235;BME280;6683;48.506;9.050;2023-04-20T12:29:57;97638.78;;;10.95;68.49
13235;BME280;6683;48.506;9.050;2023-04-20T12:33:00;97637.75;;;10.96;68.64
13235;BME280;6683;48.506;9.050;2023-04-20T12:36:05;97624.97;;;10.99;68.55
13235;BME280;6683;48.506;9.050;2023-04-20T12:39:08;97621.09;;;11.02;68.84
13235;BME280;6683;48.506;9.050;2023-04-20T12:42:11;97620.50;;;11.06;68.97
13235;BME280;6683;48.506;9.050;2023-04-20T12:45:14;97621.72;;;11.10;68.62
13235;BME280;6683;48.506;9.050;2023-04-20T12:48:16;97629.03;;;11.15;68.69
13235;BME280;6683;48.506;9.050;2023-04-20T12:51:20;97639.38;;;11.16;68.41
13235;BME280;6683;48.506;9.050;2023-04-20T12:54:22;97646.09;;;11.19;68.81
13235;BME280;6683;48.506;9.050;2023-04-20T12:57:25;97651.16;;;11.20;68.63
13235;BME280;6683;48.506;9.050;2023-04-20T13:00:27;97652.59;;;11.23;68.68
13235;BME280;6683;48.506;9.050;2023-04-20T13:03:30;97642.25;;;11.21;68.68
13235;BME280;6683;48.506;9.050;2023-04-20T13:06:34;97640.59;;;11.20;68.53
13235;BME280;6683;48.506;9.050;2023-04-20T13:09:36;97637.97;;;11.20;68.70
13235;BME280;6683;48.506;9.050;2023-04-20T13:12:38;97649.97;;;11.23;68.31
13235;BME280;6683;48.506;9.050;2023-04-20T13:15:41;97637.56;;;11.23;68.74
13235;BME280;6683;48.506;9.050;2023-04-20T13:18:44;97641.03;;;11.24;68.42
13235;BME280;6683;48.506;9.050;2023-04-20T13:21:47;97638.38;;;11.24;68.70
13235;BME280;6683;48.506;9.050;2023-04-20T13:24:50;97635.75;;;11.24;68.48
13235;BME280;6683;48.506;9.050;2023-04-20T13:27:53;97621.28;;;11.26;68.54
13235;BME280;6683;48.506;9.050;2023-04-20T13:30:56;97617.03;;;11.32;68.32
13235;BME280;6683;48.506;9.050;2023-04-20T13:33:59;97623.94;;;11.33;68.43
13235;BME280;6683;48.506;9.050;2023-04-20T13:37:03;97619.88;;;11.37;68.56
13235;BME280;6683;48.506;9.050;2023-04-20T13:40:07;97615.00;;;11.41;68.36
13235;BME280;6683;48.506;9.050;2023-04-20T13:43:11;97616.22;;;11.45;68.21
13235;BME280;6683;48.506;9.050;2023-04-20T13:46:13;97605.03;;;11.43;68.38
13235;BME280;6683;48.506;9.050;2023-04-20T13:49:16;97604.59;;;11.46;68.26
13235;BME280;6683;48.506;9.050;2023-04-20T13:52:23;97608.91;;;11.47;68.45
13235;BME280;6683;48.506;9.050;2023-04-20T13:55:26;97620.28;;;11.47;68.41
13235;BME280;6683;48.506;9.050;2023-04-20T13:58:29;97610.72;;;11.46;68.13
13235;BME280;6683;48.506;9.050;2023-04-20T14:01:32;97606.47;;;11.45;68.08
13235;BME280;6683;48.506;9.050;2023-04-20T14:04:34;97617.44;;;11.42;68.12
13235;BME280;6683;48.506;9.050;2023-04-20T14:07:38;97617.03;;;11.39;68.29
13235;BME280;6683;48.506;9.050;2023-04-20T14:10:40;97620.91;;;11.36;68.35
13235;BME280;6683;48.506;9.050;2023-04-20T14:13:43;97625.78;;;11.33;68.39
13235;BME280;6683;48.506;9.050;2023-04-20T14:16:47;97633.06;;;11.31;68.58
13235;BME280;6683;48.506;9.050;2023-04-20T14:19:50;97631.69;;;11.28;68.44
13235;BME280;6683;48.506;9.050;2023-04-20T14:22:54;97631.88;;;11.26;68.17
13235;BME280;6683;48.506;9.050;2023-04-20T14:25:56;97625.97;;;11.24;68.36
13235;BME280;6683;48.506;9.050;2023-04-20T14:28:59;97627.41;;;11.20;68.20
13235;BME280;6683;48.506;9.050;2023-04-20T14:32:03;97624.16;;;11.18;68.43
13235;BME280;6683;48.506;9.050;2023-04-20T14:35:06;97630.84;;;11.14;68.22
13235;BME280;6683;48.506;9.050;2023-04-20T14:38:10;97632.06;;;11.12;68.12
13235;BME280;6683;48.506;9.050;2023-04-20T14:41:13;97637.56;;;11.10;68.72
13235;BME280;6683;48.506;9.050;2023-04-20T14:44:16;97650.97;;;11.09;68.52
13235;BME280;6683;48.506;9.050;2023-04-20T14:47:19;97656.25;;;11.09;68.34
13235;BME280;6683;48.506;9.050;2023-04-20T14:50:23;97656.88;;;11.04;68.54
13235;BME280;6683;48.506;9.050;2023-04-20T14:53:28;97658.50;;;11.05;68.69
13235;BME280;6683;48.506;9.050;2023-04-20T14:56:30;97649.75;;;11.05;68.72
13235;BME280;6683;48.506;9.050;2023-04-20T14:59:34;97640.81;;;11.06;68.54
13235;BME280;6683;48.506;9.050;2023-04-20T15:02:37;97644.47;;;11.05;68.63
13235;BME280;6683;48.506;9.050;2023-04-20T15:05:40;97640.03;;;11.05;68.46
13235;BME280;6683;48.506;9.050;2023-04-20T15:08:44;97638.38;;;11.04;68.66
13235;BME280;6683;48.506;9.050;2023-04-20T15:11:47;97631.50;;;11.03;68.33
13235;BME280;6683;48.506;9.050;2023-04-20T15:14:49;97633.31;;;11.03;68.56
13235;BME280;6683;48.506;9.050;2023-04-20T15:17:51;97624.78;;;11.01;68.58
13235;BME280;6683;48.506;9.050;2023-04-20T15:20:54;97627.41;;;11.01;68.74
13235;BME280;6683;48.506;9.050;2023-04-20T15:23:58;97638.78;;;11.01;68.61
13235;BME280;6683;48.506;9.050;2023-04-20T15:27:00;97625.56;;;11.01;68.63
13235;BME280;6683;48.506;9.050;2023-04-20T15:30:04;97616.84;;;11.01;68.79
13235;BME280;6683;48.506;9.050;2023-04-20T15:33:07;97598.75;;;10.98;68.72
13235;BME280;6683;48.506;9.050;2023-04-20T15:36:10;97606.91;;;10.96;68.63
13235;BME280;6683;48.506;9.050;2023-04-20T15:39:13;97604.03;;;10.91;68.54
13235;BME280;6683;48.506;9.050;2023-04-20T15:42:16;97611.16;;;10.91;69.11
13235;BME280;6683;48.506;9.050;2023-04-20T15:45:18;97610.97;;;10.92;68.76
13235;BME280;6683;48.506;9.050;2023-04-20T15:48:21;97614.59;;;10.91;69.17
13235;BME280;6683;48.506;9.050;2023-04-20T15:51:23;97646.28;;;10.91;69.02
13235;BME280;6683;48.506;9.050;2023-04-20T15:54:28;97648.13;;;10.91;69.18
13235;BME280;6683;48.506;9.050;2023-04-20T15:57:31;97640.38;;;10.89;69.22
13235;BME280;6683;48.506;9.050;2023-04-20T16:00:33;97642.03;;;10.90;69.07
13235;BME280;6683;48.506;9.050;2023-04-20T16:03:36;97642.03;;;10.90;69.12
13235;BME280;6683;48.506;9.050;2023-04-20T16:06:39;97643.84;;;10.90;69.39
13235;BME280;6683;48.506;9.050;2023-04-20T16:09:43;97649.34;;;10.88;68.94
13235;BME280;6683;48.506;9.050;2023-04-20T16:12:46;97654.81;;;10.87;69.26
13235;BME280;6683;48.506;9.050;2023-04-20T16:15:49;97670.66;;;10.87;69.32
13235;BME280;6683;48.506;9.050;2023-04-20T16:18:53;97658.47;;;10.86;69.03
13235;BME280;6683;48.506;9.050;2023-04-20T16:21:55;97676.34;;;10.84;69.28
13235;BME280;6683;48.506;9.050;2023-04-20T16:24:59;97673.09;;;10.82;69.26
13235;BME280;6683;48.506;9.050;2023-04-20T16:28:02;97670.66;;;10.80;69.16
13235;BME280;6683;48.506;9.050;2023-04-20T16:31:04;97668.19;;;10.79;68.96